Terminal Aerodrome Forecast
Issued by NWS

Home | Current Version | Previous Version | Text Only | Print | Product List | Glossary On
Versions: 1 2 3 4 5 6 7 8 9 10 11 12 13 14 15
000
FTUS44 KOUN 261120
TAFCSM
TAF
KCSM 261120Z 2612/2712 17015KT 2SM BR OVC003
     FM261300 18014KT 5SM BR SCT005
     FM261400 18014G22KT P6SM SCT040
     FM262000 17020G28KT P6SM SCT035
     FM270600 16015G22KT 5SM BR OVC020=

USA.gov is the U.S. government's official web portal to all federal, state and local government web resources and services.